Accueil
METAR-TAF:

METAR-TAF

Aéroports :

Ambae, Vanuatu

latitude: 15-18-24S, longitude: 167-58-02E, altitude: 51 m

Observation

Le bulletin a été fait il y a 5 heures et 0 minutes, à 09:00 UTC
Vent calme
Température 28°C
Humidité 94%
Pression 1010 hPa
Visibilité 10 km ou plus
Quelques nuages à une hauteur de 2000 ft

METAR: NVSG 120900Z 00000KT 9999 FEW020 28/27 Q1010

Heure: 01:00 (14:00 UTC)

Prévision

Le bulletin a été fait il y a 3 heures et 0 minutes, à 11:00 UTC
Prévision valable du 12 à 12 UTC au 13 à 12 UTC
Vent 5 kt de sud/sud-est
Visibilité 10 km ou plus
Quelques nuages à une hauteur de 2000 ft
Probabilité 30%
entre IN et TE UTC
Visibilité: 9000 m
Nuages fragmentés à une hauteur de 1800 ft
faibles averses de pluie,

TAF: NVSG 121100Z 1212/1312 16005KT 9999 FEW020 PROB30 INTER 1212/1218 9000 -SHRA BKN018

Observations et prévisions météorologiques de plus de 4000 aéroports (messages METAR et TAF).

Les stations disponibles sont représentées par des disques jaunes et rouges sur la carte.

Passer la souris dessus pour voir le nom de la station.

Cliquer dessus pour voir les observations et prévisions météorologiques.

Pour changer de carte: cliquez sur les boutons verts avec une croix noire pour zoomer, sur le bouton vert avec un tiret pour effectuer un zoom arrière, ou sur les flèches vertes pour les cartes adjacentes.


METAR-TAF: